sensor_id;sensor_type;location;lat;lon;timestamp;P1;durP1;ratioP1;P2;durP2;ratioP2
13981;SDS011;7065;50.880;5.502;2023-11-21T00:01:01;49.97;;;25.15;;
13981;SDS011;7065;50.880;5.502;2023-11-21T00:03:29;43.80;;;22.35;;
13981;SDS011;7065;50.880;5.502;2023-11-21T00:05:55;44.63;;;21.45;;
13981;SDS011;7065;50.880;5.502;2023-11-21T00:08:21;42.83;;;23.33;;
13981;SDS011;7065;50.880;5.502;2023-11-21T00:10:46;41.35;;;24.35;;
13981;SDS011;7065;50.880;5.502;2023-11-21T00:13:13;43.50;;;23.58;;
13981;SDS011;7065;50.880;5.502;2023-11-21T00:15:39;41.35;;;22.70;;
13981;SDS011;7065;50.880;5.502;2023-11-21T00:18:06;47.58;;;25.65;;
13981;SDS011;7065;50.880;5.502;2023-11-21T00:20:31;38.72;;;21.80;;
13981;SDS011;7065;50.880;5.502;2023-11-21T00:22:57;42.40;;;22.75;;
13981;SDS011;7065;50.880;5.502;2023-11-21T00:25:24;40.55;;;21.20;;
13981;SDS011;7065;50.880;5.502;2023-11-21T00:27:50;39.45;;;21.85;;
13981;SDS011;7065;50.880;5.502;2023-11-21T00:30:16;41.10;;;21.48;;
13981;SDS011;7065;50.880;5.502;2023-11-21T00:32:42;40.10;;;21.63;;
13981;SDS011;7065;50.880;5.502;2023-11-21T00:35:08;33.88;;;19.80;;
13981;SDS011;7065;50.880;5.502;2023-11-21T00:37:34;38.30;;;21.67;;
13981;SDS011;7065;50.880;5.502;2023-11-21T00:39:59;36.83;;;21.92;;
13981;SDS011;7065;50.880;5.502;2023-11-21T00:42:27;38.88;;;21.02;;
13981;SDS011;7065;50.880;5.502;2023-11-21T00:44:53;47.28;;;24.55;;
13981;SDS011;7065;50.880;5.502;2023-11-21T00:47:18;40.53;;;22.17;;
13981;SDS011;7065;50.880;5.502;2023-11-21T00:49:44;36.85;;;21.17;;
13981;SDS011;7065;50.880;5.502;2023-11-21T00:52:10;35.75;;;22.05;;
13981;SDS011;7065;50.880;5.502;2023-11-21T00:54:36;40.55;;;22.67;;
13981;SDS011;7065;50.880;5.502;2023-11-21T00:57:02;42.63;;;22.02;;
13981;SDS011;7065;50.880;5.502;2023-11-21T00:59:28;41.75;;;23.23;;
13981;SDS011;7065;50.880;5.502;2023-11-21T01:01:54;46.15;;;25.08;;
13981;SDS011;7065;50.880;5.502;2023-11-21T01:04:19;43.63;;;24.70;;
13981;SDS011;7065;50.880;5.502;2023-11-21T01:06:45;50.22;;;25.02;;
13981;SDS011;7065;50.880;5.502;2023-11-21T01:09:11;48.45;;;25.10;;
13981;SDS011;7065;50.880;5.502;2023-11-21T01:11:37;49.60;;;26.05;;
13981;SDS011;7065;50.880;5.502;2023-11-21T01:14:04;52.70;;;27.20;;
13981;SDS011;7065;50.880;5.502;2023-11-21T01:16:29;66.88;;;31.15;;
13981;SDS011;7065;50.880;5.502;2023-11-21T01:18:57;72.28;;;32.03;;
13981;SDS011;7065;50.880;5.502;2023-11-21T01:21:24;67.07;;;31.10;;
13981;SDS011;7065;50.880;5.502;2023-11-21T01:23:50;68.18;;;29.73;;
13981;SDS011;7065;50.880;5.502;2023-11-21T01:26:16;63.75;;;29.23;;
13981;SDS011;7065;50.880;5.502;2023-11-21T01:28:41;71.05;;;32.25;;
13981;SDS011;7065;50.880;5.502;2023-11-21T01:31:07;70.90;;;31.00;;
13981;SDS011;7065;50.880;5.502;2023-11-21T01:33:32;70.35;;;32.25;;
13981;SDS011;7065;50.880;5.502;2023-11-21T01:35:59;73.43;;;31.50;;
13981;SDS011;7065;50.880;5.502;2023-11-21T01:38:25;62.40;;;30.08;;
13981;SDS011;7065;50.880;5.502;2023-11-21T01:40:50;70.80;;;30.85;;
13981;SDS011;7065;50.880;5.502;2023-11-21T01:43:16;64.05;;;30.88;;
13981;SDS011;7065;50.880;5.502;2023-11-21T01:45:42;65.65;;;30.10;;
13981;SDS011;7065;50.880;5.502;2023-11-21T01:48:08;66.72;;;29.05;;
13981;SDS011;7065;50.880;5.502;2023-11-21T01:50:34;70.32;;;31.48;;
13981;SDS011;7065;50.880;5.502;2023-11-21T01:53:00;68.88;;;29.73;;
13981;SDS011;7065;50.880;5.502;2023-11-21T01:55:26;64.75;;;30.35;;
13981;SDS011;7065;50.880;5.502;2023-11-21T01:57:53;72.95;;;30.13;;
13981;SDS011;7065;50.880;5.502;2023-11-21T02:00:20;67.60;;;29.92;;
13981;SDS011;7065;50.880;5.502;2023-11-21T02:02:46;66.00;;;29.23;;
13981;SDS011;7065;50.880;5.502;2023-11-21T02:05:13;69.20;;;29.75;;
13981;SDS011;7065;50.880;5.502;2023-11-21T02:07:40;68.03;;;28.70;;
13981;SDS011;7065;50.880;5.502;2023-11-21T02:10:07;62.50;;;26.67;;
13981;SDS011;7065;50.880;5.502;2023-11-21T02:12:34;60.38;;;26.92;;
13981;SDS011;7065;50.880;5.502;2023-11-21T02:15:01;65.60;;;28.65;;
13981;SDS011;7065;50.880;5.502;2023-11-21T02:17:35;70.63;;;29.02;;
13981;SDS011;7065;50.880;5.502;2023-11-21T02:20:01;74.10;;;29.77;;
13981;SDS011;7065;50.880;5.502;2023-11-21T02:22:28;67.50;;;28.88;;
13981;SDS011;7065;50.880;5.502;2023-11-21T02:24:56;68.07;;;28.55;;
13981;SDS011;7065;50.880;5.502;2023-11-21T02:27:22;77.35;;;29.17;;
13981;SDS011;7065;50.880;5.502;2023-11-21T02:29:49;64.45;;;27.65;;
13981;SDS011;7065;50.880;5.502;2023-11-21T02:32:15;70.22;;;28.42;;
13981;SDS011;7065;50.880;5.502;2023-11-21T02:34:44;72.45;;;27.92;;
13981;SDS011;7065;50.880;5.502;2023-11-21T02:37:09;76.32;;;26.73;;
13981;SDS011;7065;50.880;5.502;2023-11-21T02:39:35;71.38;;;27.30;;
13981;SDS011;7065;50.880;5.502;2023-11-21T02:42:01;74.53;;;27.35;;
13981;SDS011;7065;50.880;5.502;2023-11-21T02:44:26;70.05;;;26.40;;
13981;SDS011;7065;50.880;5.502;2023-11-21T02:46:52;71.00;;;26.52;;
13981;SDS011;7065;50.880;5.502;2023-11-21T02:49:17;74.35;;;28.25;;
13981;SDS011;7065;50.880;5.502;2023-11-21T02:51:43;79.63;;;30.05;;
13981;SDS011;7065;50.880;5.502;2023-11-21T02:54:09;72.45;;;29.00;;
13981;SDS011;7065;50.880;5.502;2023-11-21T02:56:35;77.72;;;29.30;;
13981;SDS011;7065;50.880;5.502;2023-11-21T02:59:01;72.07;;;27.95;;
13981;SDS011;7065;50.880;5.502;2023-11-21T03:01:27;66.93;;;26.25;;
13981;SDS011;7065;50.880;5.502;2023-11-21T03:03:53;80.90;;;30.38;;
13981;SDS011;7065;50.880;5.502;2023-11-21T03:06:20;71.10;;;27.27;;
13981;SDS011;7065;50.880;5.502;2023-11-21T03:08:46;79.28;;;30.70;;
13981;SDS011;7065;50.880;5.502;2023-11-21T03:11:12;67.95;;;27.02;;
13981;SDS011;7065;50.880;5.502;2023-11-21T03:13:39;79.50;;;30.10;;
13981;SDS011;7065;50.880;5.502;2023-11-21T03:16:07;68.28;;;28.05;;
13981;SDS011;7065;50.880;5.502;2023-11-21T03:18:37;81.45;;;30.15;;
13981;SDS011;7065;50.880;5.502;2023-11-21T03:21:03;77.13;;;29.30;;
13981;SDS011;7065;50.880;5.502;2023-11-21T03:23:30;80.70;;;29.48;;
13981;SDS011;7065;50.880;5.502;2023-11-21T03:25:56;85.57;;;30.70;;
13981;SDS011;7065;50.880;5.502;2023-11-21T03:28:21;85.35;;;28.55;;
13981;SDS011;7065;50.880;5.502;2023-11-21T03:30:48;101.45;;;31.77;;
13981;SDS011;7065;50.880;5.502;2023-11-21T03:33:14;92.47;;;31.55;;
13981;SDS011;7065;50.880;5.502;2023-11-21T03:35:40;87.97;;;31.17;;
13981;SDS011;7065;50.880;5.502;2023-11-21T03:38:07;82.00;;;29.83;;
13981;SDS011;7065;50.880;5.502;2023-11-21T03:40:32;85.50;;;30.35;;
13981;SDS011;7065;50.880;5.502;2023-11-21T03:42:58;95.75;;;32.17;;
13981;SDS011;7065;50.880;5.502;2023-11-21T03:45:24;89.80;;;31.60;;
13981;SDS011;7065;50.880;5.502;2023-11-21T03:47:50;99.88;;;32.92;;
13981;SDS011;7065;50.880;5.502;2023-11-21T03:50:16;108.47;;;32.92;;
13981;SDS011;7065;50.880;5.502;2023-11-21T03:52:42;106.32;;;33.22;;
13981;SDS011;7065;50.880;5.502;2023-11-21T03:55:08;90.97;;;31.77;;
13981;SDS011;7065;50.880;5.502;2023-11-21T03:57:34;89.68;;;31.42;;
13981;SDS011;7065;50.880;5.502;2023-11-21T04:00:00;93.75;;;32.55;;
13981;SDS011;7065;50.880;5.502;2023-11-21T04:02:25;101.47;;;33.20;;
13981;SDS011;7065;50.880;5.502;2023-11-21T04:04:53;87.45;;;30.83;;
13981;SDS011;7065;50.880;5.502;2023-11-21T04:07:18;110.53;;;35.15;;
13981;SDS011;7065;50.880;5.502;2023-11-21T04:09:44;114.18;;;35.38;;
13981;SDS011;7065;50.880;5.502;2023-11-21T04:12:10;126.38;;;36.40;;
13981;SDS011;7065;50.880;5.502;2023-11-21T04:14:35;117.90;;;34.45;;
13981;SDS011;7065;50.880;5.502;2023-11-21T04:17:01;139.07;;;40.10;;
13981;SDS011;7065;50.880;5.502;2023-11-21T04:19:29;162.10;;;41.53;;
13981;SDS011;7065;50.880;5.502;2023-11-21T04:21:54;144.52;;;38.88;;
13981;SDS011;7065;50.880;5.502;2023-11-21T04:24:20;130.90;;;38.78;;
13981;SDS011;7065;50.880;5.502;2023-11-21T04:26:46;128.55;;;38.10;;
13981;SDS011;7065;50.880;5.502;2023-11-21T04:29:12;132.38;;;36.97;;
13981;SDS011;7065;50.880;5.502;2023-11-21T04:31:38;113.47;;;33.45;;
13981;SDS011;7065;50.880;5.502;2023-11-21T04:34:03;97.40;;;32.42;;
13981;SDS011;7065;50.880;5.502;2023-11-21T04:36:29;107.80;;;33.63;;
13981;SDS011;7065;50.880;5.502;2023-11-21T04:38:56;129.63;;;35.05;;
13981;SDS011;7065;50.880;5.502;2023-11-21T04:41:22;121.68;;;36.05;;
13981;SDS011;7065;50.880;5.502;2023-11-21T04:43:48;109.43;;;35.22;;
13981;SDS011;7065;50.880;5.502;2023-11-21T04:46:14;95.50;;;31.02;;
13981;SDS011;7065;50.880;5.502;2023-11-21T04:48:40;86.53;;;29.58;;
13981;SDS011;7065;50.880;5.502;2023-11-21T04:51:05;109.38;;;34.63;;
13981;SDS011;7065;50.880;5.502;2023-11-21T04:53:31;100.88;;;31.85;;
13981;SDS011;7065;50.880;5.502;2023-11-21T04:55:58;98.60;;;31.83;;
13981;SDS011;7065;50.880;5.502;2023-11-21T04:58:23;88.82;;;29.55;;
13981;SDS011;7065;50.880;5.502;2023-11-21T05:00:49;96.05;;;30.45;;
13981;SDS011;7065;50.880;5.502;2023-11-21T05:03:15;82.30;;;28.80;;
13981;SDS011;7065;50.880;5.502;2023-11-21T05:05:40;99.80;;;29.98;;
13981;SDS011;7065;50.880;5.502;2023-11-21T05:08:06;88.47;;;29.92;;
13981;SDS011;7065;50.880;5.502;2023-11-21T05:10:33;97.18;;;30.33;;
13981;SDS011;7065;50.880;5.502;2023-11-21T05:12:59;94.32;;;30.65;;
13981;SDS011;7065;50.880;5.502;2023-11-21T05:15:25;90.40;;;30.35;;
13981;SDS011;7065;50.880;5.502;2023-11-21T05:17:52;87.30;;;30.27;;
13981;SDS011;7065;50.880;5.502;2023-11-21T05:20:19;90.85;;;29.48;;
13981;SDS011;7065;50.880;5.502;2023-11-21T05:22:48;91.07;;;28.23;;
13981;SDS011;7065;50.880;5.502;2023-11-21T05:25:15;95.43;;;29.90;;
13981;SDS011;7065;50.880;5.502;2023-11-21T05:27:43;96.95;;;29.85;;
13981;SDS011;7065;50.880;5.502;2023-11-21T05:30:09;92.95;;;28.75;;
13981;SDS011;7065;50.880;5.502;2023-11-21T05:32:37;82.40;;;27.65;;
13981;SDS011;7065;50.880;5.502;2023-11-21T05:35:04;93.45;;;29.33;;
13981;SDS011;7065;50.880;5.502;2023-11-21T05:37:37;84.70;;;26.77;;
13981;SDS011;7065;50.880;5.502;2023-11-21T05:40:06;94.93;;;27.52;;
13981;SDS011;7065;50.880;5.502;2023-11-21T05:42:33;89.60;;;27.52;;
13981;SDS011;7065;50.880;5.502;2023-11-21T05:45:00;98.32;;;29.70;;
13981;SDS011;7065;50.880;5.502;2023-11-21T05:47:39;96.07;;;27.48;;
13981;SDS011;7065;50.880;5.502;2023-11-21T05:50:08;94.80;;;27.42;;
13981;SDS011;7065;50.880;5.502;2023-11-21T05:52:36;97.50;;;28.45;;
13981;SDS011;7065;50.880;5.502;2023-11-21T05:55:03;97.72;;;29.63;;
13981;SDS011;7065;50.880;5.502;2023-11-21T05:57:35;111.57;;;30.48;;
13981;SDS011;7065;50.880;5.502;2023-11-21T06:00:04;111.25;;;29.50;;
13981;SDS011;7065;50.880;5.502;2023-11-21T06:02:50;97.95;;;28.45;;
13981;SDS011;7065;50.880;5.502;2023-11-21T06:05:21;126.50;;;31.70;;
13981;SDS011;7065;50.880;5.502;2023-11-21T06:07:49;98.18;;;29.10;;
13981;SDS011;7065;50.880;5.502;2023-11-21T06:10:15;117.93;;;30.45;;
13981;SDS011;7065;50.880;5.502;2023-11-21T06:12:42;115.82;;;31.23;;
13981;SDS011;7065;50.880;5.502;2023-11-21T06:15:09;102.65;;;29.15;;
13981;SDS011;7065;50.880;5.502;2023-11-21T06:17:39;101.57;;;29.73;;
13981;SDS011;7065;50.880;5.502;2023-11-21T06:20:05;116.18;;;30.63;;
13981;SDS011;7065;50.880;5.502;2023-11-21T06:22:39;131.85;;;30.08;;
13981;SDS011;7065;50.880;5.502;2023-11-21T06:25:10;151.05;;;31.70;;
13981;SDS011;7065;50.880;5.502;2023-11-21T06:27:41;122.90;;;30.05;;
13981;SDS011;7065;50.880;5.502;2023-11-21T06:30:09;104.28;;;28.52;;
13981;SDS011;7065;50.880;5.502;2023-11-21T06:32:36;103.72;;;27.27;;
13981;SDS011;7065;50.880;5.502;2023-11-21T06:35:04;111.78;;;29.75;;
13981;SDS011;7065;50.880;5.502;2023-11-21T06:37:31;85.95;;;26.60;;
13981;SDS011;7065;50.880;5.502;2023-11-21T06:39:58;113.68;;;30.05;;
13981;SDS011;7065;50.880;5.502;2023-11-21T06:42:25;121.20;;;30.60;;
13981;SDS011;7065;50.880;5.502;2023-11-21T06:44:51;122.20;;;31.13;;
13981;SDS011;7065;50.880;5.502;2023-11-21T06:47:18;112.20;;;30.38;;
13981;SDS011;7065;50.880;5.502;2023-11-21T06:49:50;114.88;;;30.70;;
13981;SDS011;7065;50.880;5.502;2023-11-21T06:52:16;118.15;;;30.85;;
13981;SDS011;7065;50.880;5.502;2023-11-21T06:54:43;120.93;;;31.67;;
13981;SDS011;7065;50.880;5.502;2023-11-21T06:57:09;115.68;;;30.25;;
13981;SDS011;7065;50.880;5.502;2023-11-21T06:59:35;122.75;;;32.28;;
13981;SDS011;7065;50.880;5.502;2023-11-21T07:02:00;133.48;;;31.60;;
13981;SDS011;7065;50.880;5.502;2023-11-21T07:04:26;119.30;;;31.40;;
13981;SDS011;7065;50.880;5.502;2023-11-21T07:06:55;160.85;;;33.15;;
13981;SDS011;7065;50.880;5.502;2023-11-21T07:09:21;114.55;;;29.90;;
13981;SDS011;7065;50.880;5.502;2023-11-21T07:11:50;143.10;;;32.42;;
13981;SDS011;7065;50.880;5.502;2023-11-21T07:14:19;132.55;;;30.95;;
13981;SDS011;7065;50.880;5.502;2023-11-21T07:16:45;131.30;;;32.25;;
13981;SDS011;7065;50.880;5.502;2023-11-21T07:19:11;143.52;;;33.03;;
13981;SDS011;7065;50.880;5.502;2023-11-21T07:21:37;117.03;;;32.28;;
13981;SDS011;7065;50.880;5.502;2023-11-21T07:24:07;139.35;;;33.92;;
13981;SDS011;7065;50.880;5.502;2023-11-21T07:26:33;138.82;;;33.33;;
13981;SDS011;7065;50.880;5.502;2023-11-21T07:29:00;135.65;;;34.15;;
13981;SDS011;7065;50.880;5.502;2023-11-21T07:31:27;130.30;;;32.10;;
13981;SDS011;7065;50.880;5.502;2023-11-21T07:33:54;165.25;;;35.58;;
13981;SDS011;7065;50.880;5.502;2023-11-21T07:36:23;149.23;;;35.72;;
13981;SDS011;7065;50.880;5.502;2023-11-21T07:38:49;141.40;;;35.08;;
13981;SDS011;7065;50.880;5.502;2023-11-21T07:41:15;127.78;;;32.58;;
13981;SDS011;7065;50.880;5.502;2023-11-21T07:43:42;125.25;;;33.05;;
13981;SDS011;7065;50.880;5.502;2023-11-21T07:46:08;137.68;;;32.55;;
13981;SDS011;7065;50.880;5.502;2023-11-21T07:48:35;139.25;;;33.38;;
13981;SDS011;7065;50.880;5.502;2023-11-21T07:51:01;139.30;;;33.40;;
13981;SDS011;7065;50.880;5.502;2023-11-21T07:53:30;148.57;;;34.40;;
13981;SDS011;7065;50.880;5.502;2023-11-21T07:56:03;155.48;;;35.63;;
13981;SDS011;7065;50.880;5.502;2023-11-21T07:58:29;158.05;;;35.38;;
13981;SDS011;7065;50.880;5.502;2023-11-21T08:00:56;141.68;;;34.95;;
13981;SDS011;7065;50.880;5.502;2023-11-21T08:03:22;145.77;;;36.08;;
13981;SDS011;7065;50.880;5.502;2023-11-21T08:05:47;120.97;;;32.97;;
13981;SDS011;7065;50.880;5.502;2023-11-21T08:08:13;130.82;;;34.35;;
13981;SDS011;7065;50.880;5.502;2023-11-21T08:10:39;122.78;;;34.17;;
13981;SDS011;7065;50.880;5.502;2023-11-21T08:13:05;138.77;;;34.90;;
13981;SDS011;7065;50.880;5.502;2023-11-21T08:15:31;150.60;;;35.03;;
13981;SDS011;7065;50.880;5.502;2023-11-21T08:17:57;134.50;;;33.35;;
13981;SDS011;7065;50.880;5.502;2023-11-21T08:20:26;135.88;;;34.72;;
13981;SDS011;7065;50.880;5.502;2023-11-21T08:22:53;131.23;;;34.90;;
13981;SDS011;7065;50.880;5.502;2023-11-21T08:25:21;125.18;;;35.03;;
13981;SDS011;7065;50.880;5.502;2023-11-21T08:27:47;131.77;;;35.88;;
13981;SDS011;7065;50.880;5.502;2023-11-21T08:30:13;128.68;;;35.50;;
13981;SDS011;7065;50.880;5.502;2023-11-21T08:32:39;146.73;;;39.40;;
13981;SDS011;7065;50.880;5.502;2023-11-21T08:35:07;129.70;;;36.63;;
13981;SDS011;7065;50.880;5.502;2023-11-21T08:37:33;129.52;;;35.90;;
13981;SDS011;7065;50.880;5.502;2023-11-21T08:40:02;134.65;;;36.72;;
13981;SDS011;7065;50.880;5.502;2023-11-21T08:42:29;137.13;;;37.58;;
13981;SDS011;7065;50.880;5.502;2023-11-21T08:44:55;129.48;;;39.22;;
13981;SDS011;7065;50.880;5.502;2023-11-21T08:47:23;131.50;;;36.13;;
13981;SDS011;7065;50.880;5.502;2023-11-21T08:49:49;139.73;;;38.70;;
13981;SDS011;7065;50.880;5.502;2023-11-21T08:52:18;127.15;;;35.55;;
13981;SDS011;7065;50.880;5.502;2023-11-21T08:54:47;130.85;;;38.38;;
13981;SDS011;7065;50.880;5.502;2023-11-21T08:57:14;132.43;;;36.80;;
13981;SDS011;7065;50.880;5.502;2023-11-21T08:59:40;116.85;;;34.55;;
13981;SDS011;7065;50.880;5.502;2023-11-21T09:02:06;128.55;;;38.03;;
13981;SDS011;7065;50.880;5.502;2023-11-21T09:04:33;114.72;;;36.13;;
13981;SDS011;7065;50.880;5.502;2023-11-21T09:06:58;127.63;;;36.22;;
13981;SDS011;7065;50.880;5.502;2023-11-21T09:09:25;125.80;;;36.63;;
13981;SDS011;7065;50.880;5.502;2023-11-21T09:11:50;102.93;;;31.77;;
13981;SDS011;7065;50.880;5.502;2023-11-21T09:14:16;100.65;;;31.60;;
13981;SDS011;7065;50.880;5.502;2023-11-21T09:16:42;97.25;;;32.03;;
13981;SDS011;7065;50.880;5.502;2023-11-21T09:19:08;102.00;;;32.67;;
13981;SDS011;7065;50.880;5.502;2023-11-21T09:21:34;100.03;;;32.03;;
13981;SDS011;7065;50.880;5.502;2023-11-21T09:24:00;104.38;;;32.20;;
13981;SDS011;7065;50.880;5.502;2023-11-21T09:26:27;95.72;;;33.50;;
13981;SDS011;7065;50.880;5.502;2023-11-21T09:28:55;104.97;;;32.50;;
13981;SDS011;7065;50.880;5.502;2023-11-21T09:31:21;106.70;;;32.60;;
13981;SDS011;7065;50.880;5.502;2023-11-21T09:33:48;100.43;;;32.85;;
13981;SDS011;7065;50.880;5.502;2023-11-21T09:36:14;95.90;;;32.15;;
13981;SDS011;7065;50.880;5.502;2023-11-21T09:38:40;90.93;;;30.73;;
13981;SDS011;7065;50.880;5.502;2023-11-21T09:41:08;93.72;;;32.22;;
13981;SDS011;7065;50.880;5.502;2023-11-21T09:43:45;96.18;;;31.50;;
13981;SDS011;7065;50.880;5.502;2023-11-21T09:46:12;90.20;;;31.58;;
13981;SDS011;7065;50.880;5.502;2023-11-21T09:48:44;92.88;;;31.42;;
13981;SDS011;7065;50.880;5.502;2023-11-21T09:51:15;82.05;;;29.55;;
13981;SDS011;7065;50.880;5.502;2023-11-21T09:53:44;72.38;;;27.98;;
13981;SDS011;7065;50.880;5.502;2023-11-21T09:56:15;71.72;;;26.63;;
13981;SDS011;7065;50.880;5.502;2023-11-21T09:58:44;77.18;;;27.63;;
13981;SDS011;7065;50.880;5.502;2023-11-21T10:01:10;88.90;;;28.02;;
13981;SDS011;7065;50.880;5.502;2023-11-21T10:03:38;75.47;;;26.98;;
13981;SDS011;7065;50.880;5.502;2023-11-21T10:06:04;66.45;;;26.58;;
13981;SDS011;7065;50.880;5.502;2023-11-21T10:08:31;66.57;;;25.05;;
13981;SDS011;7065;50.880;5.502;2023-11-21T10:10:58;46.67;;;20.90;;
13981;SDS011;7065;50.880;5.502;2023-11-21T10:13:24;55.92;;;23.17;;
13981;SDS011;7065;50.880;5.502;2023-11-21T10:15:55;69.35;;;26.13;;
13981;SDS011;7065;50.880;5.502;2023-11-21T10:18:25;76.03;;;28.33;;
13981;SDS011;7065;50.880;5.502;2023-11-21T10:20:52;73.50;;;28.48;;
13981;SDS011;7065;50.880;5.502;2023-11-21T10:23:19;71.45;;;27.95;;
13981;SDS011;7065;50.880;5.502;2023-11-21T10:25:46;63.53;;;25.25;;
13981;SDS011;7065;50.880;5.502;2023-11-21T10:28:12;56.33;;;23.35;;
13981;SDS011;7065;50.880;5.502;2023-11-21T10:30:38;70.95;;;26.85;;
13981;SDS011;7065;50.880;5.502;2023-11-21T10:33:05;63.83;;;25.45;;
13981;SDS011;7065;50.880;5.502;2023-11-21T10:38:20;59.58;;;24.67;;
13981;SDS011;7065;50.880;5.502;2023-11-21T10:40:48;64.43;;;26.20;;
13981;SDS011;7065;50.880;5.502;2023-11-21T10:43:14;68.82;;;26.95;;
13981;SDS011;7065;50.880;5.502;2023-11-21T10:45:41;61.25;;;26.17;;
13981;SDS011;7065;50.880;5.502;2023-11-21T10:48:08;64.25;;;25.85;;
13981;SDS011;7065;50.880;5.502;2023-11-21T10:50:41;58.50;;;25.00;;
13981;SDS011;7065;50.880;5.502;2023-11-21T10:53:11;53.88;;;23.45;;
13981;SDS011;7065;50.880;5.502;2023-11-21T10:55:37;55.60;;;23.95;;
13981;SDS011;7065;50.880;5.502;2023-11-21T10:58:04;64.13;;;24.95;;
13981;SDS011;7065;50.880;5.502;2023-11-21T11:00:31;57.33;;;24.63;;
13981;SDS011;7065;50.880;5.502;2023-11-21T11:02:57;50.33;;;24.08;;
13981;SDS011;7065;50.880;5.502;2023-11-21T11:05:25;55.10;;;23.13;;
13981;SDS011;7065;50.880;5.502;2023-11-21T11:08:08;53.05;;;23.40;;
13981;SDS011;7065;50.880;5.502;2023-11-21T11:10:37;52.25;;;23.30;;
13981;SDS011;7065;50.880;5.502;2023-11-21T11:13:03;57.25;;;24.20;;
13981;SDS011;7065;50.880;5.502;2023-11-21T11:15:31;53.25;;;22.77;;
13981;SDS011;7065;50.880;5.502;2023-11-21T11:17:58;51.28;;;23.13;;
13981;SDS011;7065;50.880;5.502;2023-11-21T11:20:26;50.63;;;23.80;;
13981;SDS011;7065;50.880;5.502;2023-11-21T11:25:58;52.22;;;23.95;;
13981;SDS011;7065;50.880;5.502;2023-11-21T11:37:01;45.88;;;22.40;;
13981;SDS011;7065;50.880;5.502;2023-11-21T11:39:29;47.63;;;23.25;;
13981;SDS011;7065;50.880;5.502;2023-11-21T11:41:58;44.28;;;22.20;;
13981;SDS011;7065;50.880;5.502;2023-11-21T11:47:15;47.13;;;23.75;;
13981;SDS011;7065;50.880;5.502;2023-11-21T11:50:24;48.63;;;23.83;;
13981;SDS011;7065;50.880;5.502;2023-11-21T11:53:32;41.42;;;23.27;;
13981;SDS011;7065;50.880;5.502;2023-11-21T11:55:57;41.53;;;21.77;;
13981;SDS011;7065;50.880;5.502;2023-11-21T11:58:52;47.88;;;23.90;;
13981;SDS011;7065;50.880;5.502;2023-11-21T12:01:22;42.80;;;23.20;;
13981;SDS011;7065;50.880;5.502;2023-11-21T12:06:50;44.33;;;23.17;;
13981;SDS011;7065;50.880;5.502;2023-11-21T12:09:20;40.80;;;22.67;;
13981;SDS011;7065;50.880;5.502;2023-11-21T12:11:49;40.50;;;22.55;;
13981;SDS011;7065;50.880;5.502;2023-11-21T12:14:15;40.15;;;21.00;;
13981;SDS011;7065;50.880;5.502;2023-11-21T12:16:42;40.20;;;21.10;;
13981;SDS011;7065;50.880;5.502;2023-11-21T12:19:08;34.92;;;19.75;;
13981;SDS011;7065;50.880;5.502;2023-11-21T12:21:36;33.10;;;20.67;;
13981;SDS011;7065;50.880;5.502;2023-11-21T12:24:02;36.13;;;20.42;;
13981;SDS011;7065;50.880;5.502;2023-11-21T12:26:29;38.80;;;20.45;;
13981;SDS011;7065;50.880;5.502;2023-11-21T12:28:54;34.05;;;19.70;;
13981;SDS011;7065;50.880;5.502;2023-11-21T12:31:23;33.20;;;18.80;;
13981;SDS011;7065;50.880;5.502;2023-11-21T12:33:49;29.90;;;17.92;;
13981;SDS011;7065;50.880;5.502;2023-11-21T12:36:16;32.55;;;18.85;;
13981;SDS011;7065;50.880;5.502;2023-11-21T12:38:42;30.30;;;17.20;;
13981;SDS011;7065;50.880;5.502;2023-11-21T12:41:08;25.63;;;16.52;;
13981;SDS011;7065;50.880;5.502;2023-11-21T12:43:35;26.73;;;15.93;;
13981;SDS011;7065;50.880;5.502;2023-11-21T12:46:07;30.77;;;16.85;;
13981;SDS011;7065;50.880;5.502;2023-11-21T12:48:39;32.42;;;19.10;;
13981;SDS011;7065;50.880;5.502;2023-11-21T12:51:09;34.47;;;20.30;;
13981;SDS011;7065;50.880;5.502;2023-11-21T12:53:37;32.20;;;18.80;;
13981;SDS011;7065;50.880;5.502;2023-11-21T12:56:06;36.88;;;20.27;;
13981;SDS011;7065;50.880;5.502;2023-11-21T12:58:34;40.05;;;21.45;;
13981;SDS011;7065;50.880;5.502;2023-11-21T13:01:01;37.00;;;22.08;;
13981;SDS011;7065;50.880;5.502;2023-11-21T13:03:29;39.47;;;23.23;;
13981;SDS011;7065;50.880;5.502;2023-11-21T13:05:55;46.38;;;23.98;;
13981;SDS011;7065;50.880;5.502;2023-11-21T13:08:23;41.45;;;22.98;;
13981;SDS011;7065;50.880;5.502;2023-11-21T13:10:51;43.35;;;22.80;;
13981;SDS011;7065;50.880;5.502;2023-11-21T13:13:19;47.88;;;25.63;;
13981;SDS011;7065;50.880;5.502;2023-11-21T13:15:49;47.03;;;24.50;;
13981;SDS011;7065;50.880;5.502;2023-11-21T13:18:22;46.92;;;24.73;;
13981;SDS011;7065;50.880;5.502;2023-11-21T13:20:48;51.75;;;25.55;;
13981;SDS011;7065;50.880;5.502;2023-11-21T13:23:15;42.85;;;23.92;;
13981;SDS011;7065;50.880;5.502;2023-11-21T13:25:44;43.53;;;22.48;;
13981;SDS011;7065;50.880;5.502;2023-11-21T13:28:12;44.45;;;23.90;;
13981;SDS011;7065;50.880;5.502;2023-11-21T13:30:38;37.70;;;22.13;;
13981;SDS011;7065;50.880;5.502;2023-11-21T13:33:05;43.92;;;22.58;;
13981;SDS011;7065;50.880;5.502;2023-11-21T13:35:36;42.60;;;22.98;;
13981;SDS011;7065;50.880;5.502;2023-11-21T13:38:10;37.28;;;22.13;;
13981;SDS011;7065;50.880;5.502;2023-11-21T13:40:37;38.35;;;21.10;;
13981;SDS011;7065;50.880;5.502;2023-11-21T13:43:11;38.63;;;21.20;;
13981;SDS011;7065;50.880;5.502;2023-11-21T13:45:39;39.28;;;20.58;;
13981;SDS011;7065;50.880;5.502;2023-11-21T13:48:05;37.30;;;20.63;;
13981;SDS011;7065;50.880;5.502;2023-11-21T13:50:38;38.42;;;21.83;;
13981;SDS011;7065;50.880;5.502;2023-11-21T13:53:20;39.17;;;21.48;;
13981;SDS011;7065;50.880;5.502;2023-11-21T13:55:49;35.83;;;21.25;;
13981;SDS011;7065;50.880;5.502;2023-11-21T13:58:22;36.55;;;21.05;;
13981;SDS011;7065;50.880;5.502;2023-11-21T14:00:57;35.80;;;21.77;;
13981;SDS011;7065;50.880;5.502;2023-11-21T14:03:24;32.20;;;19.65;;
13981;SDS011;7065;50.880;5.502;2023-11-21T14:05:57;37.20;;;21.65;;
13981;SDS011;7065;50.880;5.502;2023-11-21T14:08:25;34.20;;;20.55;;
13981;SDS011;7065;50.880;5.502;2023-11-21T14:10:56;33.10;;;21.08;;
13981;SDS011;7065;50.880;5.502;2023-11-21T14:13:23;30.98;;;21.15;;
13981;SDS011;7065;50.880;5.502;2023-11-21T14:15:49;29.20;;;21.05;;
13981;SDS011;7065;50.880;5.502;2023-11-21T14:18:27;30.88;;;20.23;;
13981;SDS011;7065;50.880;5.502;2023-11-21T14:21:04;28.95;;;19.58;;
13981;SDS011;7065;50.880;5.502;2023-11-21T14:23:31;32.60;;;20.02;;
13981;SDS011;7065;50.880;5.502;2023-11-21T14:25:58;29.13;;;19.05;;
13981;SDS011;7065;50.880;5.502;2023-11-21T14:28:26;27.88;;;18.63;;
13981;SDS011;7065;50.880;5.502;2023-11-21T14:30:52;28.02;;;17.98;;
13981;SDS011;7065;50.880;5.502;2023-11-21T14:33:18;25.38;;;16.98;;
13981;SDS011;7065;50.880;5.502;2023-11-21T14:35:44;21.80;;;15.63;;
13981;SDS011;7065;50.880;5.502;2023-11-21T14:38:09;20.35;;;14.15;;
13981;SDS011;7065;50.880;5.502;2023-11-21T14:40:35;20.42;;;15.45;;
13981;SDS011;7065;50.880;5.502;2023-11-21T14:43:02;21.60;;;14.88;;
13981;SDS011;7065;50.880;5.502;2023-11-21T14:45:31;22.55;;;16.30;;
13981;SDS011;7065;50.880;5.502;2023-11-21T14:47:57;22.52;;;14.88;;
13981;SDS011;7065;50.880;5.502;2023-11-21T14:50:32;23.38;;;16.45;;
13981;SDS011;7065;50.880;5.502;2023-11-21T14:53:08;23.83;;;15.88;;